Time;durP1;ratioP1;P1;durP2;ratioP2;P2;SDS_P1;SDS_P2;PMS_P1;PMS_P2;Temp;Humidity;BMP_temperature;BMP_pressure;BME280_temperature;BME280_humidity;BME280_pressure;Samples;Min_cycle;Max_cycle;Signal;HPM_P1;HPM_P2
2023/10/06 00:00:18;;;;;;;4.65;1.45;;;19.70;99.90;;;;;;6338945;22;45039;-53
2023/10/06 00:02:45;;;;;;;6.70;1.60;;;19.70;99.90;;;;;;6338294;22;47967;-54
2023/10/06 00:05:13;;;;;;;7.90;1.90;;;19.70;99.90;;;;;;6337975;22;45094;-54
2023/10/06 00:07:41;;;;;;;4.55;1.65;;;19.70;99.90;;;;;;6338305;22;45312;-54
2023/10/06 00:10:16;;;;;;;3.95;1.65;;;19.70;99.90;;;;;;6339065;22;45244;-54
2023/10/06 00:12:47;;;;;;;4.65;1.77;;;19.70;99.90;;;;;;6339221;22;45183;-54
2023/10/06 00:15:26;;;;;;;5.97;1.58;;;19.70;99.90;;;;;;6338683;22;44576;-54
2023/10/06 00:17:56;;;;;;;5.65;1.83;;;19.70;99.90;;;;;;6338407;22;45077;-54
2023/10/06 00:20:31;;;;;;;8.10;2.10;;;19.70;99.90;;;;;;6339033;22;45184;-54
2023/10/06 00:23:04;;;;;;;4.72;1.70;;;19.70;99.90;;;;;;6338314;22;47001;-54
2023/10/06 00:25:32;;;;;;;6.25;2.50;;;19.70;99.90;;;;;;6337999;22;45109;-54
2023/10/06 00:28:00;;;;;;;4.97;1.90;;;19.70;99.90;;;;;;6337725;22;45143;-54
2023/10/06 00:30:27;;;;;;;4.72;1.88;;;19.70;99.90;;;;;;6338410;22;45343;-54
2023/10/06 00:32:56;;;;;;;8.00;2.00;;;19.70;99.90;;;;;;6338555;22;46355;-54
2023/10/06 00:35:30;;;;;;;4.82;2.03;;;19.70;99.90;;;;;;6337644;22;45117;-54
2023/10/06 00:38:10;;;;;;;4.68;1.90;;;19.70;99.90;;;;;;6338229;22;45160;-54
2023/10/06 00:40:40;;;;;;;4.22;1.60;;;19.70;99.90;;;;;;6338886;22;45169;-54
2023/10/06 00:43:08;;;;;;;4.60;1.98;;;19.70;99.90;;;;;;6338442;22;48542;-54
2023/10/06 00:45:39;;;;;;;4.55;1.70;;;19.70;99.90;;;;;;6338203;22;45033;-54
2023/10/06 00:48:14;;;;;;;3.78;1.65;;;19.70;99.90;;;;;;6338287;22;45026;-53
2023/10/06 00:50:41;;;;;;;5.20;1.98;;;19.70;99.90;;;;;;6338526;22;45144;-53
2023/10/06 00:53:10;;;;;;;3.28;1.60;;;19.70;99.90;;;;;;6338503;22;46969;-54
2023/10/06 00:55:40;;;;;;;2.75;1.50;;;19.70;99.90;;;;;;6336500;22;45135;-53
2023/10/06 00:58:10;;;;;;;4.82;1.70;;;19.70;99.90;;;;;;6338042;22;45113;-54
2023/10/06 01:00:38;;;;;;;3.50;1.48;;;19.60;99.90;;;;;;6338329;22;44984;-53
2023/10/06 01:03:11;;;;;;;5.35;1.70;;;19.60;99.90;;;;;;6338022;22;47183;-54
2023/10/06 01:05:38;;;;;;;6.72;1.70;;;19.70;99.90;;;;;;6338156;22;45054;-53
2023/10/06 01:08:07;;;;;;;8.38;1.92;;;19.70;99.90;;;;;;6337865;22;45112;-54
2023/10/06 01:10:35;;;;;;;6.43;1.67;;;19.70;99.90;;;;;;6338089;22;45391;-54
2023/10/06 01:13:13;;;;;;;7.40;2.00;;;19.70;99.90;;;;;;6337979;22;46557;-54
2023/10/06 01:15:48;;;;;;;4.25;2.13;;;19.70;99.90;;;;;;6338216;22;44992;-54
2023/10/06 01:18:23;;;;;;;6.00;1.95;;;19.70;99.90;;;;;;6338416;22;45393;-54
2023/10/06 01:20:50;;;;;;;2.35;1.45;;;19.70;99.90;;;;;;6338621;22;45312;-54
2023/10/06 01:23:21;;;;;;;4.40;1.58;;;19.70;99.90;;;;;;6337988;22;46768;-54
2023/10/06 01:25:54;;;;;;;7.13;2.03;;;19.70;99.90;;;;;;6336922;22;45057;-54
2023/10/06 01:28:23;;;;;;;5.13;1.90;;;19.70;99.90;;;;;;6338738;22;45003;-54
2023/10/06 01:30:51;;;;;;;4.80;1.95;;;19.70;99.90;;;;;;6337855;22;45223;-54
2023/10/06 01:33:18;;;;;;;5.80;2.10;;;19.70;99.90;;;;;;6337377;22;47152;-54
2023/10/06 01:35:46;;;;;;;3.97;1.65;;;19.70;99.90;;;;;;6336851;22;45213;-54
2023/10/06 01:38:22;;;;;;;6.43;1.90;;;19.70;99.90;;;;;;6337350;22;45070;-54
2023/10/06 01:40:52;;;;;;;3.83;1.63;;;19.70;99.90;;;;;;6338263;22;45019;-54
2023/10/06 01:43:23;;;;;;;3.88;1.60;;;19.70;99.90;;;;;;6338033;22;45195;-54
2023/10/06 01:45:50;;;;;;;6.90;1.95;;;19.70;99.90;;;;;;6337401;22;45066;-54
2023/10/06 01:48:23;;;;;;;6.63;1.95;;;19.70;99.90;;;;;;6338451;22;45038;-53
2023/10/06 01:50:50;;;;;;;4.28;1.55;;;19.70;99.90;;;;;;6337913;22;45034;-53
2023/10/06 01:53:19;;;;;;;6.97;2.25;;;19.70;99.90;;;;;;6337498;22;45186;-53
2023/10/06 01:55:51;;;;;;;4.57;1.77;;;19.70;99.90;;;;;;6336168;22;45145;-54
2023/10/06 01:58:18;;;;;;;5.07;1.75;;;19.70;99.90;;;;;;6339199;22;45119;-53
2023/10/06 02:00:48;;;;;;;4.55;1.83;;;19.70;99.90;;;;;;6338124;22;45055;-54
2023/10/06 02:03:16;;;;;;;3.00;1.60;;;19.70;99.90;;;;;;6337648;22;45140;-53
2023/10/06 02:05:44;;;;;;;4.35;2.10;;;19.70;99.90;;;;;;6337509;22;45108;-54
2023/10/06 02:08:14;;;;;;;4.80;1.75;;;19.70;99.90;;;;;;6337314;22;45143;-54
2023/10/06 02:10:42;;;;;;;4.72;1.80;;;19.70;99.90;;;;;;6337713;22;45097;-53
2023/10/06 02:13:11;;;;;;;3.35;1.58;;;19.70;99.90;;;;;;6337513;22;45101;-54
2023/10/06 02:15:38;;;;;;;7.45;1.60;;;19.70;99.90;;;;;;6337572;22;45173;-54
2023/10/06 02:18:12;;;;;;;7.03;1.73;;;19.60;99.90;;;;;;6337483;22;45178;-54
2023/10/06 02:20:41;;;;;;;3.72;1.65;;;19.70;99.90;;;;;;6337460;22;44538;-54
2023/10/06 02:23:08;;;;;;;5.80;2.00;;;19.70;99.90;;;;;;6337470;22;46207;-54
2023/10/06 02:25:36;;;;;;;4.63;1.75;;;19.70;99.90;;;;;;6336801;22;45010;-53
2023/10/06 02:28:05;;;;;;;5.30;1.70;;;19.70;99.90;;;;;;6337600;22;44626;-54
2023/10/06 02:30:37;;;;;;;5.25;1.98;;;19.70;99.90;;;;;;6337803;22;45003;-54
2023/10/06 02:33:06;;;;;;;3.30;1.20;;;19.70;99.90;;;;;;6337284;22;45403;-54
2023/10/06 02:35:34;;;;;;;4.68;1.95;;;19.70;99.90;;;;;;6337394;22;45113;-54
2023/10/06 02:38:05;;;;;;;7.72;2.10;;;19.70;99.90;;;;;;6338202;22;45129;-53
2023/10/06 02:40:43;;;;;;;5.07;1.73;;;19.70;99.90;;;;;;6339363;22;45100;-54
2023/10/06 02:43:13;;;;;;;6.15;1.52;;;19.60;99.90;;;;;;6338897;22;46278;-54
2023/10/06 02:45:41;;;;;;;6.45;1.73;;;19.70;99.90;;;;;;6339168;22;45041;-54
2023/10/06 02:48:14;;;;;;;3.55;1.50;;;19.70;99.90;;;;;;6338926;22;45144;-54
2023/10/06 02:50:45;;;;;;;4.00;1.67;;;19.60;99.90;;;;;;6338903;22;45069;-54
2023/10/06 02:53:20;;;;;;;9.77;1.90;;;19.60;99.90;;;;;;6339034;22;45379;-54
2023/10/06 02:55:55;;;;;;;3.90;1.73;;;19.70;99.90;;;;;;6337876;22;44662;-54
2023/10/06 02:58:26;;;;;;;6.38;2.20;;;19.70;99.90;;;;;;6339326;22;45035;-54
2023/10/06 03:00:55;;;;;;;5.65;1.85;;;19.70;99.90;;;;;;6339515;22;45153;-54
2023/10/06 03:03:26;;;;;;;5.07;1.80;;;19.70;99.90;;;;;;6339318;22;47533;-54
2023/10/06 03:05:55;;;;;;;3.08;1.60;;;19.70;99.90;;;;;;6338405;22;45055;-53
2023/10/06 03:08:26;;;;;;;4.75;1.60;;;19.70;99.90;;;;;;6339353;22;45120;-53
2023/10/06 03:10:53;;;;;;;4.05;1.60;;;19.70;99.90;;;;;;6339004;22;45085;-54
2023/10/06 03:13:24;;;;;;;8.25;2.20;;;19.70;99.90;;;;;;6337930;22;45267;-53
2023/10/06 03:15:51;;;;;;;5.13;1.88;;;19.70;99.90;;;;;;6337932;22;45395;-54
2023/10/06 03:18:20;;;;;;;2.92;1.50;;;19.60;99.90;;;;;;6337881;22;45245;-54
2023/10/06 03:20:48;;;;;;;6.20;1.83;;;19.70;99.90;;;;;;6338027;22;45246;-54
2023/10/06 03:23:26;;;;;;;3.38;1.45;;;19.70;99.90;;;;;;6337930;22;47148;-53
2023/10/06 03:25:55;;;;;;;5.70;1.60;;;19.70;99.90;;;;;;6337228;22;45087;-53
2023/10/06 03:28:28;;;;;;;5.00;1.50;;;19.70;99.90;;;;;;6339021;22;45321;-53
2023/10/06 03:30:55;;;;;;;5.05;1.80;;;19.70;99.90;;;;;;6339019;22;45066;-54
2023/10/06 03:33:23;;;;;;;6.43;1.85;;;19.70;99.90;;;;;;6338933;22;45161;-54
2023/10/06 03:35:50;;;;;;;9.00;2.10;;;19.70;99.90;;;;;;6337346;22;44560;-53
2023/10/06 03:38:34;;;;;;;3.13;1.67;;;19.70;99.90;;;;;;6338857;22;45046;-53
2023/10/06 03:41:12;;;;;;;6.82;2.00;;;19.70;99.90;;;;;;6338886;22;45328;-54
2023/10/06 03:43:47;;;;;;;4.38;1.60;;;19.70;99.90;;;;;;6338930;22;45204;-54
2023/10/06 03:46:16;;;;;;;3.22;1.50;;;19.60;97.00;;;;;;6337987;22;45112;-54
2023/10/06 03:48:44;;;;;;;4.25;1.70;;;19.50;96.00;;;;;;6338352;22;44518;-54
2023/10/06 03:51:11;;;;;;;3.08;1.65;;;19.40;95.00;;;;;;6338697;22;45050;-53
2023/10/06 03:53:38;;;;;;;5.22;1.98;;;19.40;94.20;;;;;;6338967;22;46589;-53
2023/10/06 03:56:06;;;;;;;3.00;1.50;;;19.40;93.90;;;;;;6336634;22;45078;-53
2023/10/06 03:58:32;;;;;;;3.17;1.52;;;19.40;93.90;;;;;;6338809;22;45070;-53
2023/10/06 04:01:07;;;;;;;5.60;2.00;;;19.50;95.50;;;;;;6338647;22;45364;-53
2023/10/06 04:03:34;;;;;;;4.85;2.03;;;19.50;97.90;;;;;;6338293;22;45215;-53
2023/10/06 04:06:04;;;;;;;6.75;1.77;;;19.50;97.70;;;;;;6337855;22;45057;-53
2023/10/06 04:08:31;;;;;;;5.88;1.90;;;19.50;98.40;;;;;;6339107;22;45109;-53
2023/10/06 04:10:58;;;;;;;7.95;1.98;;;19.60;99.50;;;;;;6339033;22;45071;-53
2023/10/06 04:13:26;;;;;;;4.80;1.25;;;19.60;99.20;;;;;;6338744;22;45411;-53
2023/10/06 04:15:53;;;;;;;3.45;1.50;;;19.60;99.00;;;;;;6337792;22;45089;-53
2023/10/06 04:18:22;;;;;;;5.35;2.10;;;19.60;98.30;;;;;;6339195;22;44639;-53
2023/10/06 04:20:50;;;;;;;4.70;2.00;;;19.60;99.20;;;;;;6339010;22;45069;-53
2023/10/06 04:23:22;;;;;;;5.55;1.90;;;19.50;99.50;;;;;;6338765;22;46081;-53
2023/10/06 04:25:50;;;;;;;5.57;1.80;;;19.60;99.40;;;;;;6337375;22;45192;-53
2023/10/06 04:28:19;;;;;;;4.45;1.92;;;19.60;99.80;;;;;;6338145;22;45132;-54
2023/10/06 04:30:47;;;;;;;3.50;1.67;;;19.60;99.80;;;;;;6338458;22;45113;-53
2023/10/06 04:33:15;;;;;;;4.28;1.83;;;19.60;99.10;;;;;;6338580;22;46280;-53
2023/10/06 04:35:47;;;;;;;8.43;2.10;;;19.60;99.60;;;;;;6338169;22;45006;-53
2023/10/06 04:38:14;;;;;;;6.32;1.60;;;19.60;99.90;;;;;;6338137;22;44546;-53
2023/10/06 04:40:43;;;;;;;6.85;2.08;;;19.60;99.10;;;;;;6338572;22;45416;-53
2023/10/06 04:43:10;;;;;;;5.20;2.33;;;19.60;99.90;;;;;;6338420;22;45226;-53
2023/10/06 04:45:38;;;;;;;8.20;1.98;;;19.60;99.50;;;;;;6338568;22;45029;-53
2023/10/06 04:48:07;;;;;;;6.82;1.77;;;19.60;99.40;;;;;;6337886;22;45078;-53
2023/10/06 04:50:34;;;;;;;5.32;1.60;;;19.60;99.70;;;;;;6338044;22;45259;-53
2023/10/06 04:53:05;;;;;;;6.65;2.03;;;19.60;99.60;;;;;;6337924;22;45225;-53
2023/10/06 04:55:37;;;;;;;5.97;1.98;;;19.60;99.50;;;;;;6336753;22;44994;-54
2023/10/06 04:58:06;;;;;;;4.50;1.83;;;19.60;99.70;;;;;;6338025;22;45085;-54
2023/10/06 05:00:33;;;;;;;10.15;1.95;;;19.60;99.90;;;;;;6337285;22;45193;-54
2023/10/06 05:03:04;;;;;;;4.00;1.70;;;19.60;98.60;;;;;;6338399;22;45136;-54
2023/10/06 05:05:33;;;;;;;5.70;1.80;;;19.60;99.90;;;;;;6337673;22;45115;-54
2023/10/06 05:08:02;;;;;;;6.47;1.80;;;19.60;98.90;;;;;;6338393;22;45109;-54
2023/10/06 05:10:30;;;;;;;4.20;1.63;;;19.60;99.30;;;;;;6339038;22;45158;-54
2023/10/06 05:12:57;;;;;;;8.35;2.42;;;19.60;99.70;;;;;;6338600;22;45247;-54
2023/10/06 05:15:26;;;;;;;6.53;2.30;;;19.60;99.90;;;;;;6337862;22;45040;-54
2023/10/06 05:17:56;;;;;;;5.97;1.90;;;19.60;99.90;;;;;;6336281;22;44656;-54
2023/10/06 05:20:27;;;;;;;8.40;2.05;;;19.60;99.80;;;;;;6338805;22;45258;-54
2023/10/06 05:22:54;;;;;;;6.72;1.83;;;19.60;99.90;;;;;;6337500;22;45232;-54
2023/10/06 05:25:22;;;;;;;6.22;1.70;;;19.60;99.90;;;;;;6336752;22;45044;-54
2023/10/06 05:27:50;;;;;;;7.15;2.03;;;19.60;99.50;;;;;;6338415;22;45267;-54
2023/10/06 05:30:17;;;;;;;6.22;1.70;;;19.60;99.10;;;;;;6338581;22;45111;-54
2023/10/06 05:32:46;;;;;;;4.85;2.25;;;19.60;99.10;;;;;;6310089;22;45301;-53
2023/10/06 05:35:14;;;;;;;3.97;2.00;;;19.60;99.60;;;;;;6337427;22;45122;-54
2023/10/06 05:37:43;;;;;;;4.40;1.88;;;19.60;99.40;;;;;;6336861;22;44676;-54
2023/10/06 05:40:13;;;;;;;4.55;2.22;;;19.60;98.70;;;;;;6338164;22;44838;-54
2023/10/06 05:42:41;;;;;;;6.57;2.00;;;19.60;99.00;;;;;;6338499;22;46383;-53
2023/10/06 05:45:15;;;;;;;7.88;2.00;;;19.60;98.80;;;;;;6337631;22;45039;-53
2023/10/06 05:47:43;;;;;;;6.32;2.17;;;19.60;98.50;;;;;;6338059;22;45030;-53
2023/10/06 05:50:12;;;;;;;5.07;1.80;;;19.70;99.20;;;;;;6338706;22;45209;-54
2023/10/06 05:52:39;;;;;;;6.93;2.38;;;19.70;98.60;;;;;;6337976;22;48289;-54
2023/10/06 05:55:09;;;;;;;3.58;1.80;;;19.70;99.10;;;;;;6336483;22;45055;-54
2023/10/06 05:57:39;;;;;;;4.68;1.77;;;19.70;98.90;;;;;;6337736;22;45060;-53
2023/10/06 06:00:09;;;;;;;9.20;2.38;;;19.60;99.00;;;;;;6337791;22;45121;-53
2023/10/06 06:02:37;;;;;;;5.70;2.20;;;19.60;99.20;;;;;;6337912;22;45154;-53
2023/10/06 06:05:04;;;;;;;5.25;2.03;;;19.60;98.90;;;;;;6337690;22;45125;-53
2023/10/06 06:07:34;;;;;;;8.02;2.20;;;19.60;99.40;;;;;;6337547;22;44608;-54
2023/10/06 06:10:03;;;;;;;5.80;1.90;;;19.60;98.90;;;;;;6338672;22;45402;-53
2023/10/06 06:12:30;;;;;;;6.55;1.75;;;19.60;98.60;;;;;;6337864;22;46501;-53
2023/10/06 06:14:57;;;;;;;4.30;1.95;;;19.60;98.60;;;;;;6337520;22;46226;-53
2023/10/06 06:17:23;;;;;;;5.13;1.50;;;19.60;98.70;;;;;;6338002;22;44667;-53
2023/10/06 06:19:50;;;;;;;9.82;2.00;;;19.60;98.80;;;;;;6339728;22;45140;-54
2023/10/06 06:22:19;;;;;;;5.28;2.10;;;19.60;99.10;;;;;;6338381;22;46225;-53
2023/10/06 06:24:47;;;;;;;3.90;1.83;;;19.60;99.40;;;;;;6339159;22;45101;-53
2023/10/06 06:27:15;;;;;;;8.23;2.03;;;19.60;98.20;;;;;;6338400;22;45135;-53
2023/10/06 06:29:43;;;;;;;5.82;1.77;;;19.60;98.30;;;;;;6339627;22;45367;-53
2023/10/06 06:32:14;;;;;;;3.15;1.70;;;19.60;98.60;;;;;;6338136;22;45232;-53
2023/10/06 06:34:41;;;;;;;3.15;1.73;;;19.60;98.90;;;;;;6337599;22;45084;-54
2023/10/06 06:37:09;;;;;;;3.10;1.67;;;19.70;99.10;;;;;;6338218;22;45086;-53
2023/10/06 06:39:37;;;;;;;5.00;1.90;;;19.60;97.80;;;;;;6338753;22;45104;-53
2023/10/06 06:42:05;;;;;;;4.93;2.05;;;19.70;98.90;;;;;;6337273;22;47467;-53
2023/10/06 06:44:34;;;;;;;3.13;1.38;;;19.60;98.70;;;;;;6336211;22;45665;-53
2023/10/06 06:47:01;;;;;;;5.13;1.50;;;19.70;98.10;;;;;;6338193;22;45145;-54
2023/10/06 06:49:28;;;;;;;6.35;1.83;;;19.70;98.30;;;;;;6339488;22;45125;-53
2023/10/06 06:51:58;;;;;;;5.38;1.73;;;19.70;98.80;;;;;;6338717;22;46019;-53
2023/10/06 06:54:25;;;;;;;3.67;1.52;;;19.60;97.90;;;;;;6335898;22;45015;-53
2023/10/06 06:56:53;;;;;;;4.10;1.80;;;19.70;99.20;;;;;;6336595;22;45137;-54
2023/10/06 06:59:21;;;;;;;3.30;1.80;;;19.70;98.20;;;;;;6339373;22;44649;-53
2023/10/06 07:01:48;;;;;;;3.55;1.70;;;19.70;98.10;;;;;;6339051;22;45081;-53
2023/10/06 07:04:16;;;;;;;5.53;1.83;;;19.70;98.50;;;;;;6338464;22;45133;-53
2023/10/06 07:06:43;;;;;;;4.22;1.80;;;19.70;98.80;;;;;;6338214;22;45142;-54
2023/10/06 07:09:13;;;;;;;6.57;1.77;;;19.70;98.80;;;;;;6336506;22;45167;-54
2023/10/06 07:11:42;;;;;;;5.38;1.90;;;19.70;98.60;;;;;;6338936;22;45983;-53
2023/10/06 07:14:09;;;;;;;4.30;1.70;;;19.60;98.50;;;;;;6339057;22;45027;-53
2023/10/06 07:16:38;;;;;;;6.90;1.52;;;19.70;98.90;;;;;;6338749;22;45147;-53
2023/10/06 07:19:06;;;;;;;10.02;1.77;;;19.70;98.60;;;;;;6339286;22;45309;-53
2023/10/06 07:21:33;;;;;;;3.63;1.45;;;19.70;98.00;;;;;;6338147;22;45415;-53
2023/10/06 07:23:59;;;;;;;4.28;1.40;;;19.70;98.90;;;;;;6338120;22;44564;-53
2023/10/06 07:26:26;;;;;;;4.13;1.60;;;19.70;98.80;;;;;;6337927;22;44994;-53
2023/10/06 07:28:54;;;;;;;5.00;1.73;;;19.70;98.00;;;;;;6339249;22;45045;-53
2023/10/06 07:31:20;;;;;;;6.10;1.80;;;19.70;98.40;;;;;;6338492;22;45153;-54
2023/10/06 07:33:49;;;;;;;8.13;2.15;;;19.60;97.90;;;;;;6338611;22;45051;-53
2023/10/06 07:36:19;;;;;;;7.47;2.20;;;19.70;98.50;;;;;;6337592;22;44567;-53
2023/10/06 07:38:46;;;;;;;3.90;1.65;;;19.70;98.90;;;;;;6339319;22;45322;-53
2023/10/06 07:41:18;;;;;;;3.38;1.50;;;19.70;98.20;;;;;;6338476;22;46225;-53
2023/10/06 07:43:47;;;;;;;7.70;1.85;;;19.70;98.30;;;;;;6338760;22;45099;-53
2023/10/06 07:46:16;;;;;;;5.07;2.13;;;19.70;99.50;;;;;;6338691;22;45092;-53
2023/10/06 07:48:44;;;;;;;6.93;1.70;;;19.70;98.30;;;;;;6339404;22;45216;-54
2023/10/06 07:51:14;;;;;;;8.82;2.05;;;19.70;98.70;;;;;;6337501;22;46469;-53
2023/10/06 07:53:41;;;;;;;5.47;2.13;;;19.70;99.30;;;;;;6338640;22;45065;-53
2023/10/06 07:56:07;;;;;;;10.05;2.25;;;19.70;99.30;;;;;;6335960;22;45060;-53
2023/10/06 07:58:37;;;;;;;6.05;1.80;;;19.70;98.90;;;;;;6338790;22;44983;-53
2023/10/06 08:01:07;;;;;;;4.93;1.60;;;19.70;98.60;;;;;;6339045;22;45199;-53
2023/10/06 08:03:36;;;;;;;6.53;1.90;;;19.70;99.10;;;;;;6338312;22;45057;-53
2023/10/06 08:06:04;;;;;;;8.38;1.70;;;19.70;96.70;;;;;;6338081;22;45050;-53
2023/10/06 08:08:33;;;;;;;6.40;2.00;;;19.60;98.90;;;;;;6338987;22;44992;-53
2023/10/06 08:11:01;;;;;;;20.90;2.65;;;19.70;98.20;;;;;;6337391;22;46357;-54
2023/10/06 08:13:30;;;;;;;6.78;2.25;;;19.70;98.60;;;;;;6338559;22;45143;-54
2023/10/06 08:15:58;;;;;;;8.65;2.45;;;19.70;99.50;;;;;;6337982;22;44594;-54
2023/10/06 08:18:26;;;;;;;9.57;2.30;;;19.70;99.70;;;;;;6339389;22;45023;-54
2023/10/06 08:20:53;;;;;;;4.78;2.00;;;19.70;98.80;;;;;;6338478;22;45188;-54
2023/10/06 08:23:20;;;;;;;5.03;2.08;;;19.70;99.60;;;;;;6339006;22;45081;-54
2023/10/06 08:25:49;;;;;;;2.92;1.42;;;19.80;99.10;;;;;;6338147;22;45055;-54
2023/10/06 08:28:16;;;;;;;6.00;2.10;;;19.80;99.80;;;;;;6338183;22;45084;-54
2023/10/06 08:30:43;;;;;;;5.57;1.80;;;19.70;99.50;;;;;;6337896;22;45118;-54
2023/10/06 08:33:10;;;;;;;7.72;1.73;;;19.80;98.40;;;;;;6338481;22;44585;-54
2023/10/06 08:35:40;;;;;;;7.15;1.83;;;19.70;98.60;;;;;;6338779;22;45340;-54
2023/10/06 08:38:07;;;;;;;5.38;1.50;;;19.80;99.60;;;;;;6338310;22;45132;-54
2023/10/06 08:40:37;;;;;;;3.78;1.80;;;19.70;99.50;;;;;;6337886;22;47165;-54
2023/10/06 08:43:08;;;;;;;4.82;1.58;;;19.50;98.10;;;;;;6338383;22;45012;-54
2023/10/06 08:45:41;;;;;;;9.15;2.08;;;19.60;98.30;;;;;;6338698;22;45047;-54
2023/10/06 08:48:10;;;;;;;7.22;2.05;;;19.40;96.20;;;;;;6338633;22;45062;-54
2023/10/06 08:50:38;;;;;;;7.55;2.10;;;18.90;99.90;;;;;;6337914;22;46481;-54
2023/10/06 08:53:09;;;;;;;7.18;2.03;;;19.20;99.90;;;;;;6338133;22;45206;-54
2023/10/06 08:55:37;;;;;;;6.63;1.85;;;19.30;97.50;;;;;;6337200;22;45319;-54
2023/10/06 08:58:07;;;;;;;6.95;1.70;;;19.10;98.50;;;;;;6338561;22;44812;-54
2023/10/06 09:00:36;;;;;;;5.63;1.63;;;19.30;99.50;;;;;;6336261;22;47222;-54
2023/10/06 09:03:08;;;;;;;5.88;1.80;;;19.10;99.90;;;;;;6338502;22;45105;-54
2023/10/06 09:05:39;;;;;;;8.00;2.03;;;19.20;99.20;;;;;;6338396;22;45129;-54
2023/10/06 09:08:07;;;;;;;6.20;1.35;;;19.30;98.80;;;;;;6338418;22;45094;-54
2023/10/06 09:10:35;;;;;;;5.75;1.95;;;19.30;98.70;;;;;;6337537;22;46197;-54
2023/10/06 09:13:05;;;;;;;6.57;2.13;;;19.20;99.60;;;;;;6338719;22;44995;-54
2023/10/06 09:15:35;;;;;;;3.33;1.33;;;19.20;97.20;;;;;;6338258;22;45236;-54
2023/10/06 09:18:07;;;;;;;3.45;1.50;;;19.10;99.90;;;;;;6338651;22;45379;-54
2023/10/06 09:20:37;;;;;;;7.97;1.80;;;19.20;98.20;;;;;;6338461;22;46447;-54
2023/10/06 09:23:05;;;;;;;7.03;1.80;;;19.30;99.10;;;;;;6337803;22;46056;-54
2023/10/06 09:25:45;;;;;;;6.07;2.05;;;19.30;97.60;;;;;;6337930;22;44585;-54
2023/10/06 09:28:14;;;;;;;9.07;2.05;;;19.30;97.50;;;;;;6337737;22;45465;-54
2023/10/06 09:30:50;;;;;;;7.55;1.98;;;19.00;98.60;;;;;;6336700;22;45385;-54
2023/10/06 09:33:17;;;;;;;7.78;1.75;;;18.60;98.70;;;;;;6338016;22;44627;-54
2023/10/06 09:35:44;;;;;;;6.25;2.05;;;18.60;99.90;;;;;;6335800;22;45148;-54
2023/10/06 09:38:13;;;;;;;7.82;1.95;;;18.40;98.30;;;;;;6338369;22;45229;-54
2023/10/06 09:40:44;;;;;;;5.80;1.92;;;18.20;97.80;;;;;;6337462;22;45111;-54
2023/10/06 09:43:15;;;;;;;5.43;1.90;;;18.40;99.90;;;;;;6335169;22;44995;-54
2023/10/06 09:45:43;;;;;;;5.32;2.00;;;18.90;99.90;;;;;;6338545;22;45084;-54
2023/10/06 09:48:15;;;;;;;5.55;2.03;;;19.70;97.70;;;;;;6339010;22;45233;-54
2023/10/06 09:50:44;;;;;;;6.43;1.67;;;20.00;96.50;;;;;;6335582;22;45411;-54
2023/10/06 09:53:13;;;;;;;9.38;1.85;;;20.10;95.70;;;;;;6337221;22;45232;-54
2023/10/06 09:55:41;;;;;;;5.50;1.83;;;20.10;95.10;;;;;;6334370;22;45212;-55
2023/10/06 09:58:08;;;;;;;7.78;2.17;;;20.20;94.30;;;;;;6339168;22;45134;-54
2023/10/06 10:00:40;;;;;;;8.07;1.83;;;20.20;94.10;;;;;;6337413;22;46356;-54
2023/10/06 10:03:09;;;;;;;6.43;1.80;;;20.10;93.10;;;;;;6338409;22;45112;-54
2023/10/06 10:05:39;;;;;;;5.68;2.40;;;19.80;94.20;;;;;;6339149;22;45125;-55
2023/10/06 10:08:06;;;;;;;6.97;1.90;;;20.10;94.10;;;;;;6337624;22;45113;-54
2023/10/06 10:10:35;;;;;;;5.05;2.03;;;20.00;93.80;;;;;;6339557;22;45235;-54
2023/10/06 10:13:19;;;;;;;7.00;2.10;;;20.10;93.90;;;;;;6337858;22;45376;-54
2023/10/06 10:16:01;;;;;;;9.93;2.35;;;19.30;95.30;;;;;;6339541;22;45079;-54
2023/10/06 10:18:35;;;;;;;12.07;2.30;;;18.80;95.80;;;;;;6338393;22;45415;-54
2023/10/06 10:21:04;;;;;;;6.15;2.03;;;18.40;96.40;;;;;;6339408;22;46982;-54
2023/10/06 10:23:32;;;;;;;8.20;2.38;;;18.10;97.60;;;;;;6339187;22;45095;-54
2023/10/06 10:26:14;;;;;;;9.10;2.30;;;18.30;97.70;;;;;;6336031;22;44536;-55
2023/10/06 10:28:41;;;;;;;6.60;2.10;;;18.40;97.80;;;;;;6338075;22;45351;-55
2023/10/06 10:31:17;;;;;;;7.70;2.17;;;18.40;98.00;;;;;;6339220;22;47272;-55
2023/10/06 10:33:46;;;;;;;6.35;2.00;;;18.50;97.80;;;;;;6337393;22;45007;-54
2023/10/06 10:36:23;;;;;;;5.82;1.98;;;18.40;97.90;;;;;;6334853;22;45092;-54
2023/10/06 10:39:03;;;;;;;8.85;2.30;;;18.70;97.00;;;;;;6339201;22;45181;-54
2023/10/06 10:41:35;;;;;;;10.40;2.58;;;18.70;96.50;;;;;;6335677;22;48044;-54
2023/10/06 10:44:04;;;;;;;10.70;2.42;;;18.50;97.50;;;;;;6336580;22;45026;-54
2023/10/06 10:46:33;;;;;;;11.15;2.72;;;18.60;96.00;;;;;;6337189;22;45067;-55
2023/10/06 10:49:01;;;;;;;7.22;1.80;;;18.30;97.20;;;;;;6339351;22;45086;-54
2023/10/06 10:51:33;;;;;;;7.72;2.10;;;18.30;96.80;;;;;;6335663;22;47392;-54
2023/10/06 10:54:01;;;;;;;6.82;2.17;;;18.40;96.40;;;;;;6337199;22;45196;-54
2023/10/06 10:56:36;;;;;;;11.13;2.60;;;18.50;98.00;;;;;;6335538;22;45090;-55
2023/10/06 10:59:03;;;;;;;5.68;1.70;;;18.30;97.40;;;;;;6334111;22;44615;-55
2023/10/06 11:01:34;;;;;;;12.63;2.25;;;18.40;97.00;;;;;;6336242;22;47577;-55
2023/10/06 11:04:29;;;;;;;7.80;1.90;;;18.50;97.30;;;;;;6338612;22;45169;-55
2023/10/06 11:06:58;;;;;;;6.10;2.20;;;18.80;95.90;;;;;;6338706;22;45303;-54
2023/10/06 11:09:29;;;;;;;17.42;2.28;;;18.80;97.50;;;;;;6339908;22;45113;-55
2023/10/06 11:11:56;;;;;;;7.63;2.00;;;18.70;97.70;;;;;;6339135;22;46517;-54
2023/10/06 11:14:25;;;;;;;8.25;2.00;;;19.00;96.20;;;;;;6339208;22;45024;-54
2023/10/06 11:16:59;;;;;;;8.05;2.30;;;19.00;96.30;;;;;;6338900;22;45083;-54
2023/10/06 11:19:26;;;;;;;10.07;2.00;;;18.80;95.70;;;;;;6339497;22;45165;-54
2023/10/06 11:21:53;;;;;;;8.13;2.05;;;18.70;96.10;;;;;;6339429;22;45386;-54
2023/10/06 11:24:26;;;;;;;12.25;2.30;;;18.70;95.70;;;;;;6339107;22;44656;-54
2023/10/06 11:26:53;;;;;;;16.17;3.08;;;18.70;95.60;;;;;;6338383;22;45140;-54
2023/10/06 11:29:30;;;;;;;12.07;2.60;;;18.70;95.70;;;;;;6339823;22;45129;-54
2023/10/06 11:32:00;;;;;;;10.00;2.03;;;18.70;96.50;;;;;;6339007;22;45215;-54
2023/10/06 11:34:27;;;;;;;7.05;2.40;;;18.90;95.70;;;;;;6339012;22;45093;-54
2023/10/06 11:36:55;;;;;;;8.85;2.00;;;18.80;94.40;;;;;;6338560;22;45133;-54
2023/10/06 11:39:24;;;;;;;8.27;2.33;;;18.70;95.30;;;;;;6331498;22;45123;-54
2023/10/06 11:41:52;;;;;;;16.90;2.45;;;18.70;95.20;;;;;;6333030;22;45008;-54
2023/10/06 11:44:20;;;;;;;15.07;2.80;;;18.60;95.50;;;;;;6338058;22;45047;-54
2023/10/06 11:46:51;;;;;;;5.28;1.92;;;18.50;95.50;;;;;;6338274;22;45106;-54
2023/10/06 11:49:20;;;;;;;12.30;2.35;;;18.60;97.00;;;;;;6336764;22;45339;-54
2023/10/06 11:51:49;;;;;;;12.38;2.65;;;18.70;96.00;;;;;;6337985;22;47930;-54
2023/10/06 11:54:15;;;;;;;10.75;2.60;;;18.90;96.90;;;;;;6336645;22;45089;-55
2023/10/06 11:56:49;;;;;;;10.15;2.78;;;18.90;96.70;;;;;;6331913;22;45162;-53
2023/10/06 11:59:20;;;;;;;14.80;2.85;;;18.80;96.20;;;;;;6336878;22;44826;-52
2023/10/06 12:01:47;;;;;;;12.52;2.90;;;18.60;95.70;;;;;;6335433;22;47198;-54
2023/10/06 12:04:31;;;;;;;12.27;2.50;;;18.60;97.90;;;;;;6338120;22;45002;-54
2023/10/06 12:06:58;;;;;;;9.55;2.83;;;18.80;97.60;;;;;;6338508;22;45156;-54
2023/10/06 12:09:29;;;;;;;13.90;2.65;;;18.70;97.20;;;;;;6335309;22;45056;-54
2023/10/06 12:11:57;;;;;;;7.18;2.60;;;18.70;98.10;;;;;;6335651;22;46544;-53
2023/10/06 12:14:25;;;;;;;6.65;2.45;;;19.00;97.90;;;;;;6338355;22;45065;-53
2023/10/06 12:16:54;;;;;;;9.65;2.60;;;19.10;97.80;;;;;;6336641;22;45088;-53
2023/10/06 12:19:21;;;;;;;12.07;2.50;;;19.30;98.10;;;;;;6338758;22;45217;-54
2023/10/06 12:21:50;;;;;;;11.38;2.30;;;19.20;98.00;;;;;;6337515;22;46482;-54
2023/10/06 12:24:16;;;;;;;8.75;2.28;;;19.30;97.30;;;;;;6337597;22;45028;-54
2023/10/06 12:26:46;;;;;;;11.75;2.58;;;19.40;98.40;;;;;;6338065;22;45185;-54
2023/10/06 12:29:16;;;;;;;11.90;2.33;;;19.40;97.40;;;;;;6337969;22;45085;-55
2023/10/06 12:31:43;;;;;;;7.53;1.85;;;19.50;95.00;;;;;;6336974;22;45120;-54
2023/10/06 12:34:15;;;;;;;14.98;2.70;;;19.50;97.10;;;;;;6338229;22;45034;-54
2023/10/06 12:36:42;;;;;;;7.47;2.65;;;19.30;94.00;;;;;;6337615;22;45132;-54
2023/10/06 12:39:15;;;;;;;9.20;2.50;;;19.20;95.00;;;;;;6333876;22;45115;-54
2023/10/06 12:41:46;;;;;;;7.00;2.22;;;19.10;95.10;;;;;;6335833;22;47316;-54
2023/10/06 12:44:13;;;;;;;11.57;1.92;;;19.10;94.20;;;;;;6335316;22;45089;-54
2023/10/06 12:46:40;;;;;;;8.07;2.50;;;19.10;95.40;;;;;;6338053;22;45118;-54
2023/10/06 12:49:07;;;;;;;9.75;2.85;;;19.10;95.40;;;;;;6338741;22;44627;-54
2023/10/06 12:51:34;;;;;;;12.65;2.58;;;19.10;95.70;;;;;;6334466;22;45074;-54
2023/10/06 12:54:01;;;;;;;7.57;2.20;;;19.10;96.40;;;;;;6335068;22;45119;-54
2023/10/06 12:56:29;;;;;;;8.07;2.10;;;19.40;98.30;;;;;;6334553;22;45105;-54